Time;durP1;ratioP1;P1;durP2;ratioP2;P2;SDS_P1;SDS_P2;PMS_P1;PMS_P2;Temp;Humidity;BMP_temperature;BMP_pressure;BME280_temperature;BME280_humidity;BME280_pressure;Samples;Min_cycle;Max_cycle;Signal;HPM_P1;HPM_P2
2022/10/16 00:01:36;;;;;;;;;;;12.80;99.90;;;;;;5095746;28;19916;-67
2022/10/16 00:04:02;;;;;;;;;;;12.80;99.90;;;;;;5095691;28;19908;-67
2022/10/16 00:06:28;;;;;;;;;;;12.80;99.90;;;;;;5095795;28;19973;-66
2022/10/16 00:08:54;;;;;;;;;;;12.80;99.90;;;;;;5095953;28;19915;-67
2022/10/16 00:11:21;;;;;;;;;;;12.70;99.90;;;;;;5095634;28;19914;-66
2022/10/16 00:13:48;;;;;;;;;;;12.70;99.90;;;;;;5095751;28;19958;-66
2022/10/16 00:16:13;;;;;;;;;;;12.70;99.90;;;;;;5095457;28;19908;-66
2022/10/16 00:18:39;;;;;;;;;;;12.70;99.90;;;;;;5095723;28;19908;-66
2022/10/16 00:21:08;;;;;;;;;;;12.60;99.90;;;;;;5095644;28;19961;-66
2022/10/16 00:23:33;;;;;;;;;;;12.60;99.90;;;;;;5095359;28;19909;-67
2022/10/16 00:26:00;;;;;;;;;;;12.50;99.90;;;;;;5093976;28;19908;-67
2022/10/16 00:28:25;;;;;;;;;;;12.50;99.90;;;;;;5095534;28;20366;-67
2022/10/16 00:30:51;;;;;;;;;;;12.50;99.90;;;;;;5095190;28;20020;-67
2022/10/16 00:33:17;;;;;;;;;;;12.40;99.90;;;;;;5095145;28;19908;-66
2022/10/16 00:35:43;;;;;;;;;;;12.40;99.90;;;;;;5095133;28;19916;-67
2022/10/16 00:38:08;;;;;;;;;;;12.40;99.90;;;;;;5095323;28;19908;-67
2022/10/16 00:40:34;;;;;;;;;;;12.30;99.90;;;;;;5094817;28;19926;-66
2022/10/16 00:42:59;;;;;;;;;;;12.20;99.90;;;;;;5094509;28;19943;-66
2022/10/16 00:45:25;;;;;;;;;;;12.20;99.90;;;;;;5094862;28;19930;-66
2022/10/16 00:47:52;;;;;;;;;;;12.10;99.90;;;;;;5095172;28;19916;-66
2022/10/16 00:50:23;;;;;;;;;;;12.10;99.90;;;;;;5094856;28;20011;-66
2022/10/16 00:52:49;;;;;;;;;;;12.10;99.90;;;;;;5094832;28;19908;-66
2022/10/16 00:55:15;;;;;;;;;;;12.00;99.90;;;;;;5094770;28;19919;-66
2022/10/16 00:57:41;;;;;;;;;;;12.00;99.90;;;;;;5094716;28;19912;-66
2022/10/16 01:00:09;;;;;;;;;;;12.00;99.90;;;;;;5094480;28;19927;-66
2022/10/16 01:02:34;;;;;;;;;;;12.00;99.90;;;;;;5094621;28;19908;-66
2022/10/16 01:05:00;;;;;;;;;;;12.00;99.90;;;;;;5094604;28;19915;-66
2022/10/16 01:07:46;;;;;;;;;;;12.00;99.90;;;;;;5094554;28;19969;-66
2022/10/16 01:10:31;;;;;;;;;;;12.00;99.90;;;;;;5094460;28;19919;-66
2022/10/16 01:15:40;;;;;;;;;;;11.90;99.90;;;;;;5144876;27;20069;-66
2022/10/16 01:18:10;;;;;;;;;;;11.80;99.90;;;;;;5111614;28;19919;-66
2022/10/16 01:20:39;;;;;;;;;;;11.80;99.90;;;;;;5111811;28;20075;-66
2022/10/16 01:23:25;;;;;;;;;;;11.70;99.90;;;;;;5111510;28;19912;-66
2022/10/16 01:26:10;;;;;;;;;;;11.80;99.90;;;;;;5111313;28;20273;-66
2022/10/16 01:28:39;;;;;;;;;;;11.70;99.90;;;;;;5111291;28;19915;-66
2022/10/16 01:31:05;;;;;;;;;;;11.70;99.90;;;;;;5111599;28;20282;-66
2022/10/16 01:33:47;;;;;;;;;;;11.70;99.90;;;;;;5111206;28;19912;-66
2022/10/16 01:36:14;;;;;;;;;;;11.70;99.90;;;;;;5111521;28;20276;-66
2022/10/16 01:38:41;;;;;;;;;;;11.80;99.90;;;;;;5111225;28;19908;-66
2022/10/16 01:41:09;;;;;;;;;;;11.80;99.90;;;;;;5111409;28;20382;-66
2022/10/16 01:43:38;;;;;;;;;;;11.80;99.90;;;;;;5111121;28;19908;-66
2022/10/16 01:46:05;;;;;;;;;;;11.80;99.90;;;;;;5111089;28;20007;-66
2022/10/16 01:48:31;;;;;;;;;;;11.90;99.90;;;;;;5111232;28;20280;-66
2022/10/16 01:50:59;;;;;;;;;;;11.90;99.90;;;;;;5109688;28;19963;-66
2022/10/16 01:53:25;;;;;;;;;;;11.90;99.90;;;;;;5110862;28;19949;-66
2022/10/16 01:55:52;;;;;;;;;;;11.90;99.90;;;;;;5110808;28;19916;-66
2022/10/16 01:58:17;;;;;;;;;;;12.00;99.90;;;;;;5111080;28;19908;-66
2022/10/16 02:00:44;;;;;;;;;;;11.90;99.90;;;;;;5110992;28;19908;-66
2022/10/16 02:03:10;;;;;;;;;;;11.80;99.90;;;;;;5110688;28;19912;-66
2022/10/16 02:05:41;;;;;;;;;;;11.80;99.90;;;;;;5110638;28;19955;-66
2022/10/16 02:08:06;;;;;;;;;;;11.70;99.90;;;;;;5110570;28;19907;-66
2022/10/16 02:10:32;;;;;;;;;;;11.60;99.90;;;;;;5110476;28;19915;-66
2022/10/16 02:13:00;;;;;;;;;;;11.50;99.90;;;;;;5110549;28;19914;-66
2022/10/16 02:15:26;;;;;;;;;;;11.50;99.90;;;;;;5110203;28;19985;-66
2022/10/16 02:17:51;;;;;;;;;;;11.40;99.90;;;;;;5110407;28;20335;-66
2022/10/16 02:20:18;;;;;;;;;;;11.40;99.90;;;;;;5110375;28;20015;-66
2022/10/16 02:22:46;;;;;;;;;;;11.30;99.90;;;;;;5110375;28;19908;-66
2022/10/16 02:25:17;;;;;;;;;;;11.40;99.90;;;;;;5106716;28;19999;-66
2022/10/16 02:28:00;;;;;;;;;;;11.30;99.90;;;;;;5096911;28;20357;-66
2022/10/16 02:30:37;;;;;;;;;;;11.40;99.90;;;;;;5095434;28;19959;-66
2022/10/16 02:33:04;;;;;;;;;;;11.30;99.90;;;;;;5095378;28;19990;-66
2022/10/16 02:35:40;;;;;;;;;;;11.30;99.90;;;;;;5096583;28;19919;-66
2022/10/16 02:38:06;;;;;;;;;;;11.20;99.90;;;;;;5096723;28;19931;-66
2022/10/16 02:40:32;;;;;;;;;;;11.20;99.90;;;;;;5096779;28;19908;-66
2022/10/16 02:42:57;;;;;;;;;;;11.20;99.90;;;;;;5096722;28;20052;-66
2022/10/16 02:45:23;;;;;;;;;;;11.10;99.90;;;;;;5096349;28;20361;-66
2022/10/16 02:47:49;;;;;;;;;;;11.10;99.90;;;;;;5096568;28;20080;-66
2022/10/16 02:50:14;;;;;;;;;;;11.20;99.90;;;;;;5096252;28;20292;-66
2022/10/16 02:52:40;;;;;;;;;;;11.20;99.90;;;;;;5096199;28;19954;-66
2022/10/16 02:55:06;;;;;;;;;;;11.30;99.90;;;;;;5096058;28;19919;-66
2022/10/16 02:57:31;;;;;;;;;;;11.30;99.90;;;;;;5096104;28;19908;-66
2022/10/16 02:59:57;;;;;;;;;;;11.30;99.90;;;;;;5096329;28;19909;-66
2022/10/16 03:02:22;;;;;;;;;;;11.30;99.90;;;;;;5096016;28;20357;-66
2022/10/16 03:04:48;;;;;;;;;;;11.50;99.90;;;;;;5095929;28;19999;-66
2022/10/16 03:07:13;;;;;;;;;;;11.50;99.90;;;;;;5095901;28;20369;-66
2022/10/16 03:09:39;;;;;;;;;;;11.60;99.90;;;;;;5094693;28;20308;-66
2022/10/16 03:12:04;;;;;;;;;;;11.70;99.90;;;;;;5094883;28;19909;-66
2022/10/16 03:14:30;;;;;;;;;;;11.70;99.90;;;;;;5095618;28;20000;-66
2022/10/16 03:16:55;;;;;;;;;;;11.80;99.90;;;;;;5095698;28;19961;-66
2022/10/16 03:19:21;;;;;;;;;;;11.80;99.90;;;;;;5095631;28;19997;-66
2022/10/16 03:21:46;;;;;;;;;;;12.00;99.90;;;;;;5095555;28;19915;-66
2022/10/16 03:24:12;;;;;;;;;;;12.10;99.90;;;;;;5095557;28;19999;-66
2022/10/16 03:26:37;;;;;;;;;;;12.20;99.90;;;;;;5094379;28;20361;-66
2022/10/16 03:29:03;;;;;;;;;;;12.30;99.90;;;;;;5095475;28;20003;-66
2022/10/16 03:31:29;;;;;;;;;;;12.40;99.90;;;;;;5095438;28;19908;-66
2022/10/16 03:33:54;;;;;;;;;;;12.50;99.90;;;;;;5095340;28;19919;-66
2022/10/16 03:36:20;;;;;;;;;;;12.70;99.90;;;;;;5095250;28;20375;-67
2022/10/16 03:38:45;;;;;;;;;;;12.70;99.90;;;;;;5093218;28;19909;-66
2022/10/16 03:41:13;;;;;;;;;;;12.80;99.90;;;;;;5095523;28;19908;-67
2022/10/16 03:43:38;;;;;;;;;;;12.80;99.90;;;;;;5095308;28;19934;-67
2022/10/16 03:46:04;;;;;;;;;;;12.90;99.90;;;;;;5095123;28;20343;-67
2022/10/16 03:48:30;;;;;;;;;;;13.00;99.90;;;;;;5095095;28;19908;-67
2022/10/16 03:50:55;;;;;;;;;;;13.00;99.90;;;;;;5095035;28;19916;-67
2022/10/16 03:53:21;;;;;;;;;;;13.10;99.90;;;;;;5094906;28;19958;-67
2022/10/16 03:55:46;;;;;;;;;;;13.10;99.90;;;;;;5094885;28;20014;-67
2022/10/16 03:58:12;;;;;;;;;;;13.20;99.90;;;;;;5094938;28;19909;-67
2022/10/16 04:00:44;;;;;;;;;;;13.20;99.90;;;;;;5093699;28;20285;-67
2022/10/16 04:03:10;;;;;;;;;;;13.20;99.90;;;;;;5094887;28;19909;-67
2022/10/16 04:05:36;;;;;;;;;;;13.30;99.90;;;;;;5094776;28;19915;-67
2022/10/16 04:08:02;;;;;;;;;;;13.30;99.90;;;;;;5094731;28;19959;-67
2022/10/16 04:10:27;;;;;;;;;;;13.30;99.90;;;;;;5094844;28;19958;-67
2022/10/16 04:12:55;;;;;;;;;;;13.20;99.90;;;;;;5093403;28;19908;-67
2022/10/16 04:15:21;;;;;;;;;;;13.20;99.90;;;;;;5094319;28;19956;-67
2022/10/16 04:17:47;;;;;;;;;;;13.20;99.90;;;;;;5094545;28;20412;-68
2022/10/16 04:20:12;;;;;;;;;;;13.20;99.90;;;;;;5094752;28;19915;-67
2022/10/16 04:22:37;;;;;;;;;;;13.20;99.90;;;;;;5094460;28;19912;-67
2022/10/16 04:25:03;;;;;;;;;;;13.10;99.90;;;;;;5094406;28;19908;-67
2022/10/16 04:27:31;;;;;;;;;;;13.00;99.90;;;;;;5094395;28;19912;-67
2022/10/16 04:29:57;;;;;;;;;;;12.90;99.90;;;;;;5094622;28;19908;-67
2022/10/16 04:32:22;;;;;;;;;;;12.90;99.90;;;;;;5094283;28;20037;-67
2022/10/16 04:34:48;;;;;;;;;;;12.90;99.90;;;;;;5094232;28;20014;-67
2022/10/16 04:37:13;;;;;;;;;;;12.90;99.90;;;;;;5094543;28;19908;-67
2022/10/16 04:39:38;;;;;;;;;;;12.90;99.90;;;;;;5094221;28;19912;-67
2022/10/16 04:42:04;;;;;;;;;;;12.90;99.90;;;;;;5094125;28;20420;-67
2022/10/16 04:44:29;;;;;;;;;;;13.00;99.90;;;;;;5094157;28;20357;-67
2022/10/16 04:46:55;;;;;;;;;;;13.00;99.90;;;;;;5094099;28;19908;-67
2022/10/16 04:49:20;;;;;;;;;;;12.90;99.90;;;;;;5093788;28;20006;-67
2022/10/16 04:51:46;;;;;;;;;;;12.90;99.90;;;;;;5092781;28;19908;-67
2022/10/16 04:54:11;;;;;;;;;;;12.90;99.90;;;;;;5093934;28;19919;-67
2022/10/16 04:56:43;;;;;;;;;;;12.90;99.90;;;;;;5093942;28;19947;-67
2022/10/16 04:59:08;;;;;;;;;;;12.90;99.90;;;;;;5094169;28;20354;-67
2022/10/16 05:01:34;;;;;;;;;;;12.90;99.90;;;;;;5093902;28;19908;-67
2022/10/16 05:03:59;;;;;;;;;;;12.80;99.90;;;;;;5093836;28;19953;-67
2022/10/16 05:06:25;;;;;;;;;;;12.80;99.90;;;;;;5093814;28;19908;-67
2022/10/16 05:08:50;;;;;;;;;;;12.80;99.90;;;;;;5093784;28;20005;-67
2022/10/16 05:11:16;;;;;;;;;;;12.80;99.90;;;;;;5093800;28;19916;-67
2022/10/16 05:13:44;;;;;;;;;;;12.70;99.90;;;;;;5093615;28;20384;-67
2022/10/16 05:16:10;;;;;;;;;;;12.70;99.90;;;;;;5092521;28;19915;-69
2022/10/16 05:18:36;;;;;;;;;;;12.70;99.90;;;;;;5093823;28;19954;-69
2022/10/16 05:21:01;;;;;;;;;;;12.70;99.90;;;;;;5092559;28;19912;-69
2022/10/16 05:23:27;;;;;;;;;;;12.70;99.90;;;;;;5093669;28;20388;-69
2022/10/16 05:25:54;;;;;;;;;;;12.70;99.90;;;;;;5093674;28;19908;-69
2022/10/16 05:28:20;;;;;;;;;;;12.60;99.90;;;;;;5093821;28;19961;-69
2022/10/16 05:30:45;;;;;;;;;;;12.60;99.90;;;;;;5093906;28;19908;-69
2022/10/16 05:33:11;;;;;;;;;;;12.70;99.90;;;;;;5093564;28;19915;-69
2022/10/16 05:35:36;;;;;;;;;;;12.70;99.90;;;;;;5092255;28;20361;-67
2022/10/16 05:38:02;;;;;;;;;;;12.70;99.90;;;;;;5093575;28;19966;-67
2022/10/16 05:40:28;;;;;;;;;;;12.70;99.90;;;;;;5093521;28;19960;-67
2022/10/16 05:42:54;;;;;;;;;;;12.70;99.90;;;;;;5093482;28;19920;-66
2022/10/16 05:45:20;;;;;;;;;;;12.80;99.90;;;;;;5093454;28;19915;-67
2022/10/16 05:47:45;;;;;;;;;;;12.80;99.90;;;;;;5092165;28;19908;-66
2022/10/16 05:50:11;;;;;;;;;;;12.80;99.90;;;;;;5092263;28;19962;-67
2022/10/16 05:52:37;;;;;;;;;;;12.90;99.90;;;;;;5093689;28;19944;-67
2022/10/16 05:55:03;;;;;;;;;;;12.90;99.90;;;;;;5093364;28;19919;-67
2022/10/16 05:57:28;;;;;;;;;;;12.90;99.90;;;;;;5093360;28;19912;-67
2022/10/16 05:59:54;;;;;;;;;;;12.90;99.90;;;;;;5093595;28;20285;-67
2022/10/16 06:02:19;;;;;;;;;;;12.90;99.90;;;;;;5097039;28;20357;-66
2022/10/16 06:04:45;;;;;;;;;;;13.00;99.90;;;;;;5097060;28;19912;-66
2022/10/16 06:07:10;;;;;;;;;;;13.00;99.90;;;;;;5097114;28;19909;-67
2022/10/16 06:09:36;;;;;;;;;;;13.10;99.90;;;;;;5097116;28;19908;-66
2022/10/16 06:12:01;;;;;;;;;;;13.00;99.90;;;;;;5097023;28;19915;-67
2022/10/16 06:14:27;;;;;;;;;;;13.00;99.90;;;;;;5096726;28;19920;-67
2022/10/16 06:16:52;;;;;;;;;;;13.10;99.90;;;;;;5096906;28;19908;-66
2022/10/16 06:19:18;;;;;;;;;;;13.10;99.90;;;;;;5097095;28;19909;-67
2022/10/16 06:21:43;;;;;;;;;;;13.10;99.90;;;;;;5096793;28;19915;-67
2022/10/16 06:24:09;;;;;;;;;;;13.10;99.90;;;;;;5097034;28;19966;-67
2022/10/16 06:26:34;;;;;;;;;;;13.20;99.90;;;;;;5097079;28;19939;-67
2022/10/16 06:29:00;;;;;;;;;;;13.30;99.90;;;;;;5095447;28;19912;-67
2022/10/16 06:31:27;;;;;;;;;;;13.30;99.90;;;;;;5096917;28;20369;-67
2022/10/16 06:33:53;;;;;;;;;;;13.40;99.90;;;;;;5096506;28;19966;-67
2022/10/16 06:36:20;;;;;;;;;;;13.40;99.90;;;;;;5096633;28;20011;-67
2022/10/16 06:38:45;;;;;;;;;;;13.50;99.90;;;;;;5095346;28;19947;-67
2022/10/16 06:41:12;;;;;;;;;;;13.50;99.90;;;;;;5095333;28;19951;-67
2022/10/16 06:43:37;;;;;;;;;;;13.60;99.90;;;;;;5096384;28;19943;-67
2022/10/16 06:46:04;;;;;;;;;;;13.60;99.90;;;;;;5095130;28;20389;-67
2022/10/16 06:48:29;;;;;;;;;;;13.60;99.90;;;;;;5096285;28;20274;-67
2022/10/16 06:50:57;;;;;;;;;;;13.80;99.90;;;;;;5096256;28;19908;-67
2022/10/16 06:53:23;;;;;;;;;;;14.10;99.90;;;;;;5094963;28;20006;-67
2022/10/16 06:55:48;;;;;;;;;;;14.60;99.90;;;;;;5096180;28;19943;-68
2022/10/16 06:58:14;;;;;;;;;;;15.10;99.90;;;;;;5096204;28;20349;-67
2022/10/16 07:00:39;;;;;;;;;;;14.90;99.90;;;;;;5096082;28;19977;-67
2022/10/16 07:03:05;;;;;;;;;;;15.00;99.90;;;;;;5096048;28;19908;-67
2022/10/16 07:05:30;;;;;;;;;;;14.90;99.90;;;;;;5095953;28;20007;-67
2022/10/16 07:07:55;;;;;;;;;;;14.80;99.90;;;;;;5096230;28;19908;-67
2022/10/16 07:10:23;;;;;;;;;;;14.70;99.90;;;;;;5096154;28;20453;-68
2022/10/16 07:12:49;;;;;;;;;;;14.60;99.90;;;;;;5095747;28;19919;-67
2022/10/16 07:15:15;;;;;;;;;;;14.50;99.90;;;;;;5095610;28;20356;-67
2022/10/16 07:17:40;;;;;;;;;;;14.60;99.90;;;;;;5095732;28;20002;-67
2022/10/16 07:20:06;;;;;;;;;;;14.70;99.90;;;;;;5095700;28;19908;-67
2022/10/16 07:22:32;;;;;;;;;;;15.00;99.90;;;;;;5095781;28;20011;-67
2022/10/16 07:24:58;;;;;;;;;;;15.30;99.90;;;;;;5095572;28;19908;-68
2022/10/16 07:27:24;;;;;;;;;;;15.20;99.90;;;;;;5095509;28;19915;-67
2022/10/16 07:29:49;;;;;;;;;;;15.10;99.90;;;;;;5094336;28;19955;-67
2022/10/16 07:32:15;;;;;;;;;;;15.30;99.90;;;;;;5095406;28;19961;-67
2022/10/16 07:34:40;;;;;;;;;;;16.00;99.90;;;;;;5095528;28;20361;-68
2022/10/16 07:37:06;;;;;;;;;;;16.40;99.90;;;;;;5095666;28;20004;-68
2022/10/16 07:39:31;;;;;;;;;;;16.10;99.90;;;;;;5095537;28;20002;-68
2022/10/16 07:41:57;;;;;;;;;;;16.00;99.90;;;;;;5095271;28;20012;-67
2022/10/16 07:44:22;;;;;;;;;;;15.50;99.90;;;;;;5095229;28;19915;-68
2022/10/16 07:46:48;;;;;;;;;;;15.10;99.90;;;;;;5095406;28;20380;-68
2022/10/16 07:49:13;;;;;;;;;;;15.00;99.90;;;;;;5095161;28;19915;-67
2022/10/16 07:51:39;;;;;;;;;;;14.80;99.90;;;;;;5076966;28;19912;-67
2022/10/16 07:54:04;;;;;;;;;;;14.80;99.90;;;;;;5095209;28;19919;-68
2022/10/16 07:56:31;;;;;;;;;;;15.50;99.90;;;;;;5095222;28;19912;-68
2022/10/16 07:58:56;;;;;;;;;;;16.40;99.90;;;;;;5095161;28;20377;-68
2022/10/16 08:01:22;;;;;;;;;;;17.00;99.90;;;;;;5095111;28;19915;-68
2022/10/16 08:03:49;;;;;;;;;;;17.00;99.90;;;;;;5094857;28;19930;-69
2022/10/16 08:06:14;;;;;;;;;;;17.90;99.90;;;;;;5094761;28;19908;-68
2022/10/16 08:08:40;;;;;;;;;;;17.60;99.90;;;;;;5094750;28;19908;-69
2022/10/16 08:11:05;;;;;;;;;;;17.50;99.90;;;;;;5094726;28;19908;-69
2022/10/16 08:13:31;;;;;;;;;;;17.30;99.90;;;;;;5094348;28;20285;-69
2022/10/16 08:15:56;;;;;;;;;;;18.30;99.90;;;;;;5094625;28;19965;-69
2022/10/16 08:18:22;;;;;;;;;;;18.70;99.90;;;;;;5094608;28;19961;-69
2022/10/16 08:20:48;;;;;;;;;;;19.10;99.90;;;;;;5094494;28;19908;-69
2022/10/16 08:23:13;;;;;;;;;;;19.10;99.90;;;;;;5093895;28;19915;-69
2022/10/16 08:25:40;;;;;;;;;;;18.80;99.90;;;;;;5094611;28;19923;-69
2022/10/16 08:28:06;;;;;;;;;;;18.70;99.90;;;;;;5093255;28;19915;-69
2022/10/16 08:30:31;;;;;;;;;;;18.60;99.90;;;;;;5094556;28;19915;-68
2022/10/16 08:32:57;;;;;;;;;;;18.70;99.90;;;;;;5093367;28;20281;-68
2022/10/16 08:35:23;;;;;;;;;;;18.70;99.90;;;;;;5094462;28;19912;-69
2022/10/16 08:37:49;;;;;;;;;;;19.10;99.90;;;;;;5094522;28;20375;-69
2022/10/16 08:40:17;;;;;;;;;;;19.30;99.90;;;;;;5094238;28;20273;-69
2022/10/16 08:42:52;;;;;;;;;;;19.50;99.90;;;;;;5093238;28;20369;-69
2022/10/16 08:45:26;;;;;;;;;;;19.20;99.90;;;;;;5094141;28;19915;-69
2022/10/16 08:48:00;;;;;;;;;;;19.20;99.90;;;;;;5094121;28;19908;-69
2022/10/16 08:50:28;;;;;;;;;;;19.80;99.90;;;;;;5094074;28;19908;-69
2022/10/16 08:52:54;;;;;;;;;;;19.30;99.90;;;;;;5094295;28;20428;-69
2022/10/16 08:58:00;;;;;;;;;;;19.90;99.90;;;;;;5144865;27;19912;-68
2022/10/16 09:00:26;;;;;;;;;;;19.50;99.90;;;;;;5111806;28;20277;-68
2022/10/16 09:02:57;;;;;;;;;;;19.50;99.90;;;;;;5111456;28;19912;-68
2022/10/16 09:05:45;;;;;;;;;;;19.90;99.90;;;;;;5111734;28;19966;-68
2022/10/16 09:08:25;;;;;;;;;;;19.40;99.90;;;;;;5111259;28;20281;-68
2022/10/16 09:10:56;;;;;;;;;;;19.60;99.90;;;;;;5111379;28;20387;-68
2022/10/16 09:13:31;;;;;;;;;;;19.20;99.90;;;;;;5111337;28;19912;-68
2022/10/16 09:16:08;;;;;;;;;;;19.50;99.90;;;;;;5111172;28;20289;-68
2022/10/16 09:18:39;;;;;;;;;;;19.90;99.90;;;;;;5111233;28;20304;-68
2022/10/16 09:21:09;;;;;;;;;;;19.70;99.90;;;;;;5111160;28;19915;-68
2022/10/16 09:23:36;;;;;;;;;;;20.00;99.90;;;;;;5111197;28;19952;-68
2022/10/16 09:26:02;;;;;;;;;;;19.70;99.90;;;;;;5111077;28;19952;-68
2022/10/16 09:28:27;;;;;;;;;;;20.10;99.90;;;;;;5111289;28;19908;-68
2022/10/16 09:30:54;;;;;;;;;;;20.30;99.90;;;;;;5110976;28;19908;-68
2022/10/16 09:33:21;;;;;;;;;;;20.20;99.90;;;;;;5110927;28;19916;-68
2022/10/16 09:35:51;;;;;;;;;;;20.20;99.90;;;;;;5109884;28;19908;-68
2022/10/16 09:38:26;;;;;;;;;;;20.40;99.90;;;;;;5111117;28;19959;-68
2022/10/16 09:40:51;;;;;;;;;;;20.40;99.90;;;;;;5110769;28;19915;-69
2022/10/16 09:43:36;;;;;;;;;;;19.90;99.90;;;;;;5110723;28;19908;-68
2022/10/16 09:46:07;;;;;;;;;;;20.40;99.90;;;;;;5110719;28;20432;-68
2022/10/16 09:48:36;;;;;;;;;;;20.40;99.90;;;;;;5110671;28;19912;-68
2022/10/16 09:51:03;;;;;;;;;;;20.00;99.90;;;;;;5110580;28;19912;-68
2022/10/16 09:53:38;;;;;;;;;;;20.20;99.90;;;;;;5110833;28;20262;-68
2022/10/16 09:56:06;;;;;;;;;;;20.20;99.90;;;;;;5110253;28;19985;-68
2022/10/16 09:58:33;;;;;;;;;;;20.20;99.90;;;;;;5110451;28;19908;-68
2022/10/16 10:00:58;;;;;;;;;;;20.70;99.90;;;;;;5109274;28;20282;-68
2022/10/16 10:03:34;;;;;;;;;;;20.80;99.90;;;;;;5110324;28;19933;-68
2022/10/16 10:06:05;;;;;;;;;;;20.40;99.90;;;;;;5110286;28;20388;-68
2022/10/16 10:08:30;;;;;;;;;;;20.40;99.90;;;;;;5101498;28;19915;-68
2022/10/16 10:10:57;;;;;;;;;;;19.90;99.90;;;;;;5096431;28;19908;-68
2022/10/16 10:13:24;;;;;;;;;;;19.90;99.90;;;;;;5096589;28;19915;-68
2022/10/16 10:15:50;;;;;;;;;;;20.00;99.90;;;;;;5095393;28;20003;-68
2022/10/16 10:18:18;;;;;;;;;;;19.90;99.90;;;;;;5096539;28;19951;-68
2022/10/16 10:20:44;;;;;;;;;;;19.70;99.90;;;;;;5096406;28;19934;-68
2022/10/16 10:23:26;;;;;;;;;;;19.70;99.90;;;;;;5096678;28;19908;-68
2022/10/16 10:25:56;;;;;;;;;;;19.80;99.90;;;;;;5096361;28;19930;-68
2022/10/16 10:28:38;;;;;;;;;;;20.00;99.90;;;;;;5096615;28;20408;-68
2022/10/16 10:31:24;;;;;;;;;;;19.80;99.90;;;;;;5095301;28;19908;-69
2022/10/16 10:34:09;;;;;;;;;;;19.90;99.90;;;;;;5096128;28;20351;-68
2022/10/16 10:36:39;;;;;;;;;;;20.00;99.90;;;;;;5096001;28;20261;-68
2022/10/16 10:39:11;;;;;;;;;;;20.90;99.90;;;;;;5096359;28;19908;-68
2022/10/16 10:41:56;;;;;;;;;;;21.40;99.90;;;;;;5096235;28;20262;-68
2022/10/16 10:44:27;;;;;;;;;;;20.90;99.90;;;;;;5095854;28;19912;-68
2022/10/16 10:46:57;;;;;;;;;;;20.80;99.90;;;;;;5096137;28;19975;-68
2022/10/16 10:49:42;;;;;;;;;;;20.60;99.90;;;;;;5095876;28;19915;-70
2022/10/16 10:52:17;;;;;;;;;;;20.50;99.90;;;;;;5095736;28;19908;-69
2022/10/16 10:55:03;;;;;;;;;;;20.60;99.90;;;;;;5095880;28;19915;-69
2022/10/16 10:57:28;;;;;;;;;;;20.70;99.90;;;;;;5095328;28;19963;-69
2022/10/16 11:00:00;;;;;;;;;;;20.90;99.90;;;;;;5095707;28;19908;-69
2022/10/16 11:02:34;;;;;;;;;;;20.90;99.90;;;;;;5095644;28;20006;-69
2022/10/16 11:05:19;;;;;;;;;;;20.80;99.90;;;;;;5095584;28;19951;-68
2022/10/16 11:07:48;;;;;;;;;;;21.20;99.90;;;;;;5095825;28;20381;-68
2022/10/16 11:10:18;;;;;;;;;;;21.10;99.90;;;;;;5095517;28;19999;-68
2022/10/16 11:12:45;;;;;;;;;;;21.20;99.90;;;;;;5095433;28;19999;-68
2022/10/16 11:15:14;;;;;;;;;;;21.40;99.90;;;;;;5095393;28;20348;-68
2022/10/16 11:17:42;;;;;;;;;;;21.30;99.90;;;;;;5095327;28;19912;-68
2022/10/16 11:20:17;;;;;;;;;;;21.50;99.90;;;;;;5094602;28;19962;-69
2022/10/16 11:22:52;;;;;;;;;;;21.60;99.90;;;;;;5095479;28;20373;-69
2022/10/16 11:25:33;;;;;;;;;;;21.30;99.90;;;;;;5094016;28;19995;-68
2022/10/16 11:28:20;;;;;;;;;;;21.20;99.90;;;;;;5095003;28;19950;-69
2022/10/16 11:31:05;;;;;;;;;;;21.50;99.90;;;;;;5094980;28;20002;-68
2022/10/16 11:33:49;;;;;;;;;;;20.70;99.90;;;;;;5094945;28;19908;-68
2022/10/16 11:36:25;;;;;;;;;;;20.20;99.90;;;;;;5094931;28;19919;-68
2022/10/16 11:38:54;;;;;;;;;;;19.50;99.90;;;;;;5093796;28;19908;-68
2022/10/16 11:41:24;;;;;;;;;;;19.90;99.90;;;;;;5095151;28;19915;-68
2022/10/16 11:43:58;;;;;;;;;;;19.70;99.90;;;;;;5094785;28;20006;-68
2022/10/16 11:46:24;;;;;;;;;;;19.50;99.90;;;;;;5094782;28;20004;-68
2022/10/16 11:49:00;;;;;;;;;;;19.60;99.90;;;;;;5095008;28;19908;-68
2022/10/16 11:51:33;;;;;;;;;;;19.50;99.90;;;;;;5094973;28;19908;-68
2022/10/16 11:54:05;;;;;;;;;;;19.50;99.90;;;;;;5094664;28;19908;-68
2022/10/16 11:56:32;;;;;;;;;;;19.40;99.90;;;;;;5093153;28;20338;-68
2022/10/16 11:59:00;;;;;;;;;;;19.10;99.90;;;;;;5094884;28;20276;-69
2022/10/16 12:01:38;;;;;;;;;;;18.90;99.90;;;;;;5094784;28;20265;-68
2022/10/16 12:04:12;;;;;;;;;;;18.80;99.90;;;;;;5094484;28;19915;-69
2022/10/16 12:06:42;;;;;;;;;;;18.80;99.90;;;;;;5093235;28;20002;-68
2022/10/16 12:09:13;;;;;;;;;;;18.70;99.90;;;;;;5094665;28;19930;-68
2022/10/16 12:11:39;;;;;;;;;;;18.70;99.90;;;;;;5094397;28;19912;-68
2022/10/16 12:14:07;;;;;;;;;;;18.70;99.90;;;;;;5094283;28;19908;-68
2022/10/16 12:16:32;;;;;;;;;;;18.60;99.90;;;;;;5094147;28;19961;-68
2022/10/16 12:19:14;;;;;;;;;;;18.60;99.90;;;;;;5094502;28;20307;-68
2022/10/16 12:21:39;;;;;;;;;;;18.70;99.90;;;;;;5094455;28;19958;-68
2022/10/16 12:24:05;;;;;;;;;;;18.70;99.90;;;;;;5094073;28;19909;-68
2022/10/16 12:26:33;;;;;;;;;;;18.80;99.90;;;;;;5094387;28;19908;-68
2022/10/16 12:29:19;;;;;;;;;;;18.90;99.90;;;;;;5094057;28;19915;-68
2022/10/16 12:31:46;;;;;;;;;;;18.90;99.90;;;;;;5093727;28;19943;-68
2022/10/16 12:34:31;;;;;;;;;;;18.90;99.90;;;;;;5094254;28;20380;-68
2022/10/16 12:37:07;;;;;;;;;;;18.90;99.90;;;;;;5093792;28;19919;-68
2022/10/16 12:39:32;;;;;;;;;;;19.10;99.90;;;;;;5093942;28;19911;-68
2022/10/16 12:42:02;;;;;;;;;;;19.60;99.90;;;;;;5093840;28;19908;-68
2022/10/16 12:44:32;;;;;;;;;;;19.70;99.90;;;;;;5093767;28;19915;-69
2022/10/16 12:46:57;;;;;;;;;;;19.90;99.90;;;;;;5094078;28;19915;-69
2022/10/16 12:49:35;;;;;;;;;;;19.90;99.90;;;;;;5094065;28;19908;-68
2022/10/16 12:52:00;;;;;;;;;;;20.00;99.90;;;;;;5093955;28;20297;-68
2022/10/16 12:54:31;;;;;;;;;;;20.00;99.90;;;;;;5093684;28;19915;-68
2022/10/16 12:57:16;;;;;;;;;;;20.00;99.90;;;;;;5093546;28;19921;-68
2022/10/16 12:59:46;;;;;;;;;;;20.20;99.90;;;;;;5093713;28;19959;-68
2022/10/16 13:02:31;;;;;;;;;;;20.10;99.90;;;;;;5093728;28;20007;-68
2022/10/16 13:05:11;;;;;;;;;;;20.10;99.90;;;;;;5092282;28;19958;-69
2022/10/16 13:07:56;;;;;;;;;;;20.10;99.90;;;;;;5093863;28;19994;-68
2022/10/16 13:10:28;;;;;;;;;;;20.00;99.90;;;;;;5093495;28;20083;-69
2022/10/16 13:13:02;;;;;;;;;;;20.20;99.90;;;;;;5092327;28;19914;-68
2022/10/16 13:15:37;;;;;;;;;;;20.30;99.90;;;;;;5093837;28;20358;-68
2022/10/16 13:18:14;;;;;;;;;;;20.30;99.90;;;;;;5093470;28;20004;-68
2022/10/16 13:20:57;;;;;;;;;;;20.10;99.90;;;;;;5093787;28;19915;-68
2022/10/16 13:23:27;;;;;;;;;;;20.00;99.90;;;;;;5093731;28;19908;-69
2022/10/16 13:26:13;;;;;;;;;;;20.10;99.90;;;;;;5093755;28;19931;-68
2022/10/16 13:28:39;;;;;;;;;;;20.30;99.90;;;;;;5093505;28;20335;-68
2022/10/16 13:31:05;;;;;;;;;;;20.00;99.90;;;;;;5093410;28;20273;-68
2022/10/16 13:33:32;;;;;;;;;;;20.00;99.90;;;;;;5093414;28;19915;-68
2022/10/16 13:35:58;;;;;;;;;;;20.00;99.90;;;;;;5093246;28;19912;-68
2022/10/16 13:38:26;;;;;;;;;;;20.00;99.90;;;;;;5093381;28;19957;-68
2022/10/16 13:40:53;;;;;;;;;;;20.00;99.90;;;;;;5093596;28;20027;-68
2022/10/16 13:43:20;;;;;;;;;;;20.00;99.90;;;;;;5094949;28;19931;-69
2022/10/16 13:46:02;;;;;;;;;;;20.00;99.90;;;;;;5097226;28;20358;-68
2022/10/16 13:48:28;;;;;;;;;;;20.20;99.90;;;;;;5096979;28;19991;-69
2022/10/16 13:51:13;;;;;;;;;;;20.20;99.90;;;;;;5097318;28;19951;-68
2022/10/16 13:53:40;;;;;;;;;;;20.30;99.90;;;;;;5097006;28;19915;-68
2022/10/16 13:56:07;;;;;;;;;;;20.30;99.90;;;;;;5096663;28;19974;-69
2022/10/16 13:58:32;;;;;;;;;;;20.10;99.90;;;;;;5097179;28;19976;-69
2022/10/16 14:00:59;;;;;;;;;;;20.00;99.90;;;;;;5096825;28;19995;-69
2022/10/16 14:03:25;;;;;;;;;;;20.00;99.90;;;;;;5096867;28;19908;-69
2022/10/16 14:05:52;;;;;;;;;;;19.90;99.90;;;;;;5097055;28;20009;-68
2022/10/16 14:08:18;;;;;;;;;;;19.90;99.90;;;;;;5096983;28;20277;-68
2022/10/16 14:10:47;;;;;;;;;;;20.00;99.90;;;;;;5096671;28;19909;-68
2022/10/16 14:13:15;;;;;;;;;;;20.00;99.90;;;;;;5096851;28;20387;-69
2022/10/16 14:15:45;;;;;;;;;;;19.90;99.90;;;;;;5096780;28;19987;-68
2022/10/16 14:18:17;;;;;;;;;;;19.90;99.90;;;;;;5096801;28;19912;-68
2022/10/16 14:20:42;;;;;;;;;;;19.80;99.90;;;;;;5096718;28;19920;-68
2022/10/16 14:23:27;;;;;;;;;;;19.80;99.90;;;;;;5096756;28;19932;-68
2022/10/16 14:25:53;;;;;;;;;;;19.60;99.90;;;;;;5095281;28;20386;-68
2022/10/16 14:28:20;;;;;;;;;;;19.60;99.90;;;;;;5096364;28;19908;-68
2022/10/16 14:30:54;;;;;;;;;;;19.60;99.90;;;;;;5095155;28;19915;-69